sensor_id;sensor_type;location;lat;lon;timestamp;P1;durP1;ratioP1;P2;durP2;ratioP2
27925;SDS011;15267;47.838;12.128;2022-07-06T00:02:24;4.07;;;1.73;;
27925;SDS011;15267;47.838;12.128;2022-07-06T00:04:50;3.55;;;1.70;;
27925;SDS011;15267;47.838;12.128;2022-07-06T00:07:16;2.72;;;1.92;;
27925;SDS011;15267;47.838;12.128;2022-07-06T00:09:42;3.50;;;1.80;;
27925;SDS011;15267;47.838;12.128;2022-07-06T00:12:08;2.58;;;1.60;;
27925;SDS011;15267;47.838;12.128;2022-07-06T00:14:34;2.30;;;1.60;;
27925;SDS011;15267;47.838;12.128;2022-07-06T00:17:01;3.47;;;1.52;;
27925;SDS011;15267;47.838;12.128;2022-07-06T00:19:27;2.97;;;1.50;;
27925;SDS011;15267;47.838;12.128;2022-07-06T00:21:52;4.25;;;1.90;;
27925;SDS011;15267;47.838;12.128;2022-07-06T00:24:18;5.03;;;1.75;;
27925;SDS011;15267;47.838;12.128;2022-07-06T00:26:45;2.10;;;1.70;;
27925;SDS011;15267;47.838;12.128;2022-07-06T00:29:11;7.78;;;1.73;;
27925;SDS011;15267;47.838;12.128;2022-07-06T00:31:37;2.28;;;1.50;;
27925;SDS011;15267;47.838;12.128;2022-07-06T00:34:03;5.25;;;1.60;;
27925;SDS011;15267;47.838;12.128;2022-07-06T00:36:29;2.20;;;1.55;;
27925;SDS011;15267;47.838;12.128;2022-07-06T00:38:55;2.65;;;1.75;;
27925;SDS011;15267;47.838;12.128;2022-07-06T00:41:21;3.15;;;1.50;;
27925;SDS011;15267;47.838;12.128;2022-07-06T00:43:51;1.70;;;1.50;;
27925;SDS011;15267;47.838;12.128;2022-07-06T00:46:20;3.20;;;1.65;;
27925;SDS011;15267;47.838;12.128;2022-07-06T00:48:48;5.43;;;1.60;;
27925;SDS011;15267;47.838;12.128;2022-07-06T00:51:14;4.13;;;1.77;;
27925;SDS011;15267;47.838;12.128;2022-07-06T00:53:40;2.75;;;1.70;;
27925;SDS011;15267;47.838;12.128;2022-07-06T00:56:07;1.92;;;1.50;;
27925;SDS011;15267;47.838;12.128;2022-07-06T00:58:34;1.60;;;1.50;;
27925;SDS011;15267;47.838;12.128;2022-07-06T01:01:00;2.72;;;1.63;;
27925;SDS011;15267;47.838;12.128;2022-07-06T01:03:26;2.78;;;1.50;;
27925;SDS011;15267;47.838;12.128;2022-07-06T01:05:52;4.45;;;1.65;;
27925;SDS011;15267;47.838;12.128;2022-07-06T01:08:18;4.28;;;1.70;;
27925;SDS011;15267;47.838;12.128;2022-07-06T01:10:44;3.10;;;1.60;;
27925;SDS011;15267;47.838;12.128;2022-07-06T01:13:10;2.55;;;1.60;;
27925;SDS011;15267;47.838;12.128;2022-07-06T01:15:36;7.60;;;1.88;;
27925;SDS011;15267;47.838;12.128;2022-07-06T01:18:02;3.80;;;1.80;;
27925;SDS011;15267;47.838;12.128;2022-07-06T01:20:28;2.78;;;1.80;;
27925;SDS011;15267;47.838;12.128;2022-07-06T01:22:54;5.65;;;1.80;;
27925;SDS011;15267;47.838;12.128;2022-07-06T01:25:21;3.13;;;1.90;;
27925;SDS011;15267;47.838;12.128;2022-07-06T01:27:48;2.28;;;1.90;;
27925;SDS011;15267;47.838;12.128;2022-07-06T01:30:14;7.63;;;1.90;;
27925;SDS011;15267;47.838;12.128;2022-07-06T01:32:41;4.18;;;2.10;;
27925;SDS011;15267;47.838;12.128;2022-07-06T01:35:08;4.03;;;1.92;;
27925;SDS011;15267;47.838;12.128;2022-07-06T01:37:34;6.30;;;1.90;;
27925;SDS011;15267;47.838;12.128;2022-07-06T01:40:01;3.15;;;1.80;;
27925;SDS011;15267;47.838;12.128;2022-07-06T01:42:27;7.03;;;2.28;;
27925;SDS011;15267;47.838;12.128;2022-07-06T01:44:53;3.50;;;1.88;;
27925;SDS011;15267;47.838;12.128;2022-07-06T01:47:19;3.72;;;2.03;;
27925;SDS011;15267;47.838;12.128;2022-07-06T01:49:45;6.22;;;2.20;;
27925;SDS011;15267;47.838;12.128;2022-07-06T01:52:11;2.60;;;2.17;;
27925;SDS011;15267;47.838;12.128;2022-07-06T01:54:37;4.70;;;2.25;;
27925;SDS011;15267;47.838;12.128;2022-07-06T01:57:03;4.10;;;2.20;;
27925;SDS011;15267;47.838;12.128;2022-07-06T01:59:29;3.65;;;2.10;;
27925;SDS011;15267;47.838;12.128;2022-07-06T02:01:55;3.63;;;1.88;;
27925;SDS011;15267;47.838;12.128;2022-07-06T02:04:21;3.60;;;1.90;;
27925;SDS011;15267;47.838;12.128;2022-07-06T02:06:47;4.85;;;2.00;;
27925;SDS011;15267;47.838;12.128;2022-07-06T02:09:13;3.47;;;1.95;;
27925;SDS011;15267;47.838;12.128;2022-07-06T02:11:40;4.22;;;1.73;;
27925;SDS011;15267;47.838;12.128;2022-07-06T02:14:06;5.40;;;1.88;;
27925;SDS011;15267;47.838;12.128;2022-07-06T02:16:32;5.10;;;2.28;;
27925;SDS011;15267;47.838;12.128;2022-07-06T02:18:58;3.65;;;1.90;;
27925;SDS011;15267;47.838;12.128;2022-07-06T02:21:24;7.72;;;2.40;;
27925;SDS011;15267;47.838;12.128;2022-07-06T02:23:50;3.00;;;2.00;;
27925;SDS011;15267;47.838;12.128;2022-07-06T02:26:16;5.28;;;1.85;;
27925;SDS011;15267;47.838;12.128;2022-07-06T02:28:42;2.65;;;1.85;;
27925;SDS011;15267;47.838;12.128;2022-07-06T02:31:10;3.63;;;1.75;;
27925;SDS011;15267;47.838;12.128;2022-07-06T02:33:38;5.90;;;1.98;;
27925;SDS011;15267;47.838;12.128;2022-07-06T02:36:04;4.82;;;1.95;;
27925;SDS011;15267;47.838;12.128;2022-07-06T02:38:30;2.70;;;1.80;;
27925;SDS011;15267;47.838;12.128;2022-07-06T02:40:56;4.25;;;1.92;;
27925;SDS011;15267;47.838;12.128;2022-07-06T02:43:22;2.55;;;1.90;;
27925;SDS011;15267;47.838;12.128;2022-07-06T02:45:47;3.17;;;2.05;;
27925;SDS011;15267;47.838;12.128;2022-07-06T02:48:13;5.75;;;1.98;;
27925;SDS011;15267;47.838;12.128;2022-07-06T02:50:39;5.32;;;2.30;;
27925;SDS011;15267;47.838;12.128;2022-07-06T02:53:05;4.20;;;1.90;;
27925;SDS011;15267;47.838;12.128;2022-07-06T02:55:31;2.38;;;1.98;;
27925;SDS011;15267;47.838;12.128;2022-07-06T02:57:58;4.70;;;2.47;;
27925;SDS011;15267;47.838;12.128;2022-07-06T03:00:24;3.42;;;2.15;;
27925;SDS011;15267;47.838;12.128;2022-07-06T03:02:49;4.72;;;2.00;;
27925;SDS011;15267;47.838;12.128;2022-07-06T03:05:15;3.88;;;2.10;;
27925;SDS011;15267;47.838;12.128;2022-07-06T03:07:41;3.03;;;2.00;;
27925;SDS011;15267;47.838;12.128;2022-07-06T03:10:07;3.28;;;2.10;;
27925;SDS011;15267;47.838;12.128;2022-07-06T03:12:33;5.38;;;2.00;;
27925;SDS011;15267;47.838;12.128;2022-07-06T03:14:59;3.67;;;2.00;;
27925;SDS011;15267;47.838;12.128;2022-07-06T03:17:25;2.40;;;1.90;;
27925;SDS011;15267;47.838;12.128;2022-07-06T03:19:51;2.35;;;2.00;;
27925;SDS011;15267;47.838;12.128;2022-07-06T03:22:17;4.13;;;1.88;;
27925;SDS011;15267;47.838;12.128;2022-07-06T03:24:43;2.53;;;2.17;;
27925;SDS011;15267;47.838;12.128;2022-07-06T03:27:09;3.25;;;1.90;;
27925;SDS011;15267;47.838;12.128;2022-07-06T03:29:35;4.50;;;2.25;;
27925;SDS011;15267;47.838;12.128;2022-07-06T03:32:01;3.88;;;1.80;;
27925;SDS011;15267;47.838;12.128;2022-07-06T03:34:27;3.45;;;2.05;;
27925;SDS011;15267;47.838;12.128;2022-07-06T03:36:53;2.72;;;1.77;;
27925;SDS011;15267;47.838;12.128;2022-07-06T03:39:19;3.67;;;1.90;;
27925;SDS011;15267;47.838;12.128;2022-07-06T03:41:45;5.32;;;2.33;;
27925;SDS011;15267;47.838;12.128;2022-07-06T03:44:11;5.82;;;2.20;;
27925;SDS011;15267;47.838;12.128;2022-07-06T03:46:37;3.50;;;2.03;;
27925;SDS011;15267;47.838;12.128;2022-07-06T03:49:03;2.28;;;1.80;;
27925;SDS011;15267;47.838;12.128;2022-07-06T03:51:29;3.53;;;2.00;;
27925;SDS011;15267;47.838;12.128;2022-07-06T03:53:55;3.15;;;1.98;;
27925;SDS011;15267;47.838;12.128;2022-07-06T03:56:21;3.90;;;2.00;;
27925;SDS011;15267;47.838;12.128;2022-07-06T03:58:53;3.33;;;2.20;;
27925;SDS011;15267;47.838;12.128;2022-07-06T04:01:19;2.45;;;2.00;;
27925;SDS011;15267;47.838;12.128;2022-07-06T04:03:45;5.40;;;1.95;;
27925;SDS011;15267;47.838;12.128;2022-07-06T04:06:11;2.40;;;2.20;;
27925;SDS011;15267;47.838;12.128;2022-07-06T04:08:37;2.95;;;2.15;;
27925;SDS011;15267;47.838;12.128;2022-07-06T04:11:03;4.40;;;1.85;;
27925;SDS011;15267;47.838;12.128;2022-07-06T04:13:29;4.15;;;2.90;;
27925;SDS011;15267;47.838;12.128;2022-07-06T04:15:55;7.68;;;2.78;;
27925;SDS011;15267;47.838;12.128;2022-07-06T04:18:21;5.38;;;2.80;;
27925;SDS011;15267;47.838;12.128;2022-07-06T04:20:47;3.15;;;2.25;;
27925;SDS011;15267;47.838;12.128;2022-07-06T04:23:13;8.63;;;2.80;;
27925;SDS011;15267;47.838;12.128;2022-07-06T04:25:39;6.32;;;2.20;;
27925;SDS011;15267;47.838;12.128;2022-07-06T04:28:05;5.60;;;2.20;;
27925;SDS011;15267;47.838;12.128;2022-07-06T04:30:31;2.58;;;2.17;;
27925;SDS011;15267;47.838;12.128;2022-07-06T04:32:57;4.53;;;2.28;;
27925;SDS011;15267;47.838;12.128;2022-07-06T04:35:23;3.55;;;2.38;;
27925;SDS011;15267;47.838;12.128;2022-07-06T04:37:49;3.15;;;2.20;;
27925;SDS011;15267;47.838;12.128;2022-07-06T04:40:15;4.25;;;2.50;;
27925;SDS011;15267;47.838;12.128;2022-07-06T04:42:41;4.43;;;2.10;;
27925;SDS011;15267;47.838;12.128;2022-07-06T04:45:08;2.97;;;2.13;;
27925;SDS011;15267;47.838;12.128;2022-07-06T04:47:34;3.10;;;2.30;;
27925;SDS011;15267;47.838;12.128;2022-07-06T04:50:00;3.47;;;2.10;;
27925;SDS011;15267;47.838;12.128;2022-07-06T04:52:26;3.42;;;2.08;;
27925;SDS011;15267;47.838;12.128;2022-07-06T04:54:54;3.65;;;2.00;;
27925;SDS011;15267;47.838;12.128;2022-07-06T04:57:20;5.90;;;2.20;;
27925;SDS011;15267;47.838;12.128;2022-07-06T04:59:46;5.10;;;2.65;;
27925;SDS011;15267;47.838;12.128;2022-07-06T05:02:12;4.85;;;2.17;;
27925;SDS011;15267;47.838;12.128;2022-07-06T05:04:38;2.75;;;2.15;;
27925;SDS011;15267;47.838;12.128;2022-07-06T05:07:04;3.20;;;2.53;;
27925;SDS011;15267;47.838;12.128;2022-07-06T05:09:30;5.00;;;2.15;;
27925;SDS011;15267;47.838;12.128;2022-07-06T05:11:56;4.55;;;1.90;;
27925;SDS011;15267;47.838;12.128;2022-07-06T05:14:22;4.30;;;2.33;;
27925;SDS011;15267;47.838;12.128;2022-07-06T05:16:48;3.60;;;2.00;;
27925;SDS011;15267;47.838;12.128;2022-07-06T05:19:14;3.13;;;2.28;;
27925;SDS011;15267;47.838;12.128;2022-07-06T05:21:40;4.97;;;2.08;;
27925;SDS011;15267;47.838;12.128;2022-07-06T05:24:06;7.45;;;2.35;;
27925;SDS011;15267;47.838;12.128;2022-07-06T05:26:32;2.88;;;1.95;;
27925;SDS011;15267;47.838;12.128;2022-07-06T05:28:58;6.10;;;2.03;;
27925;SDS011;15267;47.838;12.128;2022-07-06T05:31:24;4.80;;;2.20;;
27925;SDS011;15267;47.838;12.128;2022-07-06T05:33:50;3.65;;;2.20;;
27925;SDS011;15267;47.838;12.128;2022-07-06T05:36:16;3.65;;;2.10;;
27925;SDS011;15267;47.838;12.128;2022-07-06T05:38:43;2.75;;;2.17;;
27925;SDS011;15267;47.838;12.128;2022-07-06T05:41:09;2.40;;;2.20;;
27925;SDS011;15267;47.838;12.128;2022-07-06T05:43:35;5.18;;;2.20;;
27925;SDS011;15267;47.838;12.128;2022-07-06T05:46:02;5.18;;;2.40;;
27925;SDS011;15267;47.838;12.128;2022-07-06T05:48:28;3.13;;;2.08;;
27925;SDS011;15267;47.838;12.128;2022-07-06T05:51:12;5.22;;;2.15;;
27925;SDS011;15267;47.838;12.128;2022-07-06T05:53:38;4.00;;;2.30;;
27925;SDS011;15267;47.838;12.128;2022-07-06T05:56:04;3.90;;;2.20;;
27925;SDS011;15267;47.838;12.128;2022-07-06T05:58:30;6.55;;;2.10;;
27925;SDS011;15267;47.838;12.128;2022-07-06T06:00:56;2.83;;;2.20;;
27925;SDS011;15267;47.838;12.128;2022-07-06T06:03:22;4.00;;;2.28;;
27925;SDS011;15267;47.838;12.128;2022-07-06T06:05:48;3.00;;;2.15;;
27925;SDS011;15267;47.838;12.128;2022-07-06T06:08:14;4.43;;;2.42;;
27925;SDS011;15267;47.838;12.128;2022-07-06T06:10:40;3.53;;;2.38;;
27925;SDS011;15267;47.838;12.128;2022-07-06T06:13:06;6.03;;;3.50;;
27925;SDS011;15267;47.838;12.128;2022-07-06T06:15:33;4.13;;;2.00;;
27925;SDS011;15267;47.838;12.128;2022-07-06T06:17:59;5.18;;;2.47;;
27925;SDS011;15267;47.838;12.128;2022-07-06T06:20:25;2.97;;;2.00;;
27925;SDS011;15267;47.838;12.128;2022-07-06T06:22:52;3.03;;;1.70;;
27925;SDS011;15267;47.838;12.128;2022-07-06T06:25:19;4.55;;;2.05;;
27925;SDS011;15267;47.838;12.128;2022-07-06T06:27:45;3.38;;;1.60;;
27925;SDS011;15267;47.838;12.128;2022-07-06T06:30:12;2.35;;;1.83;;
27925;SDS011;15267;47.838;12.128;2022-07-06T06:32:38;4.78;;;1.90;;
27925;SDS011;15267;47.838;12.128;2022-07-06T06:35:05;3.53;;;1.70;;
27925;SDS011;15267;47.838;12.128;2022-07-06T06:37:31;3.08;;;2.00;;
27925;SDS011;15267;47.838;12.128;2022-07-06T06:39:57;4.40;;;2.10;;
27925;SDS011;15267;47.838;12.128;2022-07-06T06:42:23;4.75;;;1.98;;
27925;SDS011;15267;47.838;12.128;2022-07-06T06:44:49;4.47;;;2.40;;
27925;SDS011;15267;47.838;12.128;2022-07-06T06:47:15;3.65;;;1.90;;
27925;SDS011;15267;47.838;12.128;2022-07-06T06:49:41;2.40;;;1.42;;
27925;SDS011;15267;47.838;12.128;2022-07-06T06:52:07;3.80;;;1.77;;
27925;SDS011;15267;47.838;12.128;2022-07-06T06:54:33;3.25;;;1.60;;
27925;SDS011;15267;47.838;12.128;2022-07-06T06:56:59;4.07;;;1.70;;
27925;SDS011;15267;47.838;12.128;2022-07-06T06:59:24;3.22;;;1.73;;
27925;SDS011;15267;47.838;12.128;2022-07-06T07:01:50;4.25;;;1.75;;
27925;SDS011;15267;47.838;12.128;2022-07-06T07:04:16;4.75;;;1.67;;
27925;SDS011;15267;47.838;12.128;2022-07-06T07:06:42;4.03;;;1.85;;
27925;SDS011;15267;47.838;12.128;2022-07-06T07:09:08;3.80;;;1.48;;
27925;SDS011;15267;47.838;12.128;2022-07-06T07:11:34;3.25;;;1.52;;
27925;SDS011;15267;47.838;12.128;2022-07-06T07:14:00;4.45;;;1.90;;
27925;SDS011;15267;47.838;12.128;2022-07-06T07:16:27;2.97;;;1.60;;
27925;SDS011;15267;47.838;12.128;2022-07-06T07:18:53;4.03;;;1.60;;
27925;SDS011;15267;47.838;12.128;2022-07-06T07:21:19;2.70;;;1.48;;
27925;SDS011;15267;47.838;12.128;2022-07-06T07:23:45;1.73;;;1.30;;
27925;SDS011;15267;47.838;12.128;2022-07-06T07:26:11;3.20;;;1.23;;
27925;SDS011;15267;47.838;12.128;2022-07-06T07:28:37;2.95;;;1.40;;
27925;SDS011;15267;47.838;12.128;2022-07-06T07:31:04;1.88;;;1.20;;
27925;SDS011;15267;47.838;12.128;2022-07-06T07:33:30;2.70;;;1.40;;
27925;SDS011;15267;47.838;12.128;2022-07-06T07:35:56;1.70;;;1.30;;
27925;SDS011;15267;47.838;12.128;2022-07-06T07:38:22;4.20;;;1.30;;
27925;SDS011;15267;47.838;12.128;2022-07-06T07:40:48;3.38;;;1.40;;
27925;SDS011;15267;47.838;12.128;2022-07-06T07:43:14;4.03;;;1.38;;
27925;SDS011;15267;47.838;12.128;2022-07-06T07:45:40;4.93;;;1.40;;
27925;SDS011;15267;47.838;12.128;2022-07-06T07:48:06;2.10;;;1.10;;
27925;SDS011;15267;47.838;12.128;2022-07-06T07:50:32;1.90;;;1.02;;
27925;SDS011;15267;47.838;12.128;2022-07-06T07:52:59;4.70;;;1.38;;
27925;SDS011;15267;47.838;12.128;2022-07-06T07:55:25;3.67;;;1.00;;
27925;SDS011;15267;47.838;12.128;2022-07-06T07:57:51;3.85;;;1.35;;
27925;SDS011;15267;47.838;12.128;2022-07-06T08:00:17;1.55;;;0.95;;
27925;SDS011;15267;47.838;12.128;2022-07-06T08:02:46;1.85;;;1.00;;
27925;SDS011;15267;47.838;12.128;2022-07-06T08:05:12;3.95;;;1.10;;
27925;SDS011;15267;47.838;12.128;2022-07-06T08:07:40;6.50;;;1.20;;
27925;SDS011;15267;47.838;12.128;2022-07-06T08:10:06;1.80;;;1.20;;
27925;SDS011;15267;47.838;12.128;2022-07-06T08:12:32;2.05;;;1.20;;
27925;SDS011;15267;47.838;12.128;2022-07-06T08:14:58;4.00;;;1.13;;
27925;SDS011;15267;47.838;12.128;2022-07-06T08:17:24;1.67;;;1.00;;
27925;SDS011;15267;47.838;12.128;2022-07-06T08:19:50;0.82;;;0.80;;
27925;SDS011;15267;47.838;12.128;2022-07-06T08:22:16;1.73;;;1.02;;
27925;SDS011;15267;47.838;12.128;2022-07-06T08:24:42;5.07;;;0.90;;
27925;SDS011;15267;47.838;12.128;2022-07-06T08:27:08;1.58;;;1.00;;
27925;SDS011;15267;47.838;12.128;2022-07-06T08:29:34;2.80;;;0.98;;
27925;SDS011;15267;47.838;12.128;2022-07-06T08:32:00;1.90;;;0.98;;
27925;SDS011;15267;47.838;12.128;2022-07-06T08:34:26;2.70;;;1.00;;
27925;SDS011;15267;47.838;12.128;2022-07-06T08:36:52;1.75;;;1.00;;
27925;SDS011;15267;47.838;12.128;2022-07-06T08:39:18;7.22;;;1.05;;
27925;SDS011;15267;47.838;12.128;2022-07-06T08:41:44;2.50;;;1.10;;
27925;SDS011;15267;47.838;12.128;2022-07-06T08:44:12;2.50;;;0.93;;
27925;SDS011;15267;47.838;12.128;2022-07-06T08:46:38;3.53;;;1.20;;
27925;SDS011;15267;47.838;12.128;2022-07-06T08:49:06;3.72;;;1.17;;
27925;SDS011;15267;47.838;12.128;2022-07-06T08:51:32;2.78;;;1.23;;
27925;SDS011;15267;47.838;12.128;2022-07-06T08:53:59;3.72;;;1.20;;
27925;SDS011;15267;47.838;12.128;2022-07-06T08:56:25;2.95;;;1.25;;
27925;SDS011;15267;47.838;12.128;2022-07-06T08:58:51;5.63;;;1.20;;
27925;SDS011;15267;47.838;12.128;2022-07-06T09:01:18;1.30;;;1.08;;
27925;SDS011;15267;47.838;12.128;2022-07-06T09:03:45;2.20;;;1.15;;
27925;SDS011;15267;47.838;12.128;2022-07-06T09:06:11;5.47;;;1.10;;
27925;SDS011;15267;47.838;12.128;2022-07-06T09:08:40;3.03;;;1.25;;
27925;SDS011;15267;47.838;12.128;2022-07-06T09:11:06;4.00;;;1.23;;
27925;SDS011;15267;47.838;12.128;2022-07-06T09:13:32;4.30;;;1.20;;
27925;SDS011;15267;47.838;12.128;2022-07-06T09:16:08;3.58;;;1.15;;
27925;SDS011;15267;47.838;12.128;2022-07-06T09:18:38;4.13;;;1.08;;
27925;SDS011;15267;47.838;12.128;2022-07-06T09:21:06;11.57;;;1.17;;
27925;SDS011;15267;47.838;12.128;2022-07-06T09:23:32;1.98;;;1.00;;
27925;SDS011;15267;47.838;12.128;2022-07-06T09:26:00;2.30;;;1.13;;
27925;SDS011;15267;47.838;12.128;2022-07-06T09:28:42;3.42;;;1.02;;
27925;SDS011;15267;47.838;12.128;2022-07-06T09:31:09;2.83;;;1.10;;
27925;SDS011;15267;47.838;12.128;2022-07-06T09:33:35;3.83;;;1.35;;
27925;SDS011;15267;47.838;12.128;2022-07-06T09:36:01;2.25;;;1.25;;
27925;SDS011;15267;47.838;12.128;2022-07-06T09:38:28;4.55;;;1.33;;
27925;SDS011;15267;47.838;12.128;2022-07-06T09:40:54;3.30;;;1.10;;
27925;SDS011;15267;47.838;12.128;2022-07-06T09:43:21;3.63;;;1.15;;
27925;SDS011;15267;47.838;12.128;2022-07-06T09:45:56;3.90;;;1.30;;
27925;SDS011;15267;47.838;12.128;2022-07-06T09:48:23;2.35;;;1.10;;
27925;SDS011;15267;47.838;12.128;2022-07-06T09:50:56;3.60;;;1.27;;
27925;SDS011;15267;47.838;12.128;2022-07-06T09:53:24;1.88;;;1.17;;
27925;SDS011;15267;47.838;12.128;2022-07-06T09:55:51;3.47;;;1.20;;
27925;SDS011;15267;47.838;12.128;2022-07-06T09:58:17;4.28;;;1.25;;
27925;SDS011;15267;47.838;12.128;2022-07-06T10:00:44;1.67;;;1.10;;
27925;SDS011;15267;47.838;12.128;2022-07-06T10:03:11;4.85;;;1.25;;
27925;SDS011;15267;47.838;12.128;2022-07-06T10:05:38;1.38;;;0.90;;
27925;SDS011;15267;47.838;12.128;2022-07-06T10:08:04;3.53;;;1.38;;
27925;SDS011;15267;47.838;12.128;2022-07-06T10:10:31;3.53;;;1.42;;
27925;SDS011;15267;47.838;12.128;2022-07-06T10:12:58;2.40;;;1.13;;
27925;SDS011;15267;47.838;12.128;2022-07-06T10:15:27;2.83;;;1.13;;
27925;SDS011;15267;47.838;12.128;2022-07-06T10:17:56;2.20;;;1.20;;
27925;SDS011;15267;47.838;12.128;2022-07-06T10:20:23;5.22;;;1.20;;
27925;SDS011;15267;47.838;12.128;2022-07-06T10:22:50;2.15;;;1.20;;
27925;SDS011;15267;47.838;12.128;2022-07-06T10:25:16;3.10;;;1.40;;
27925;SDS011;15267;47.838;12.128;2022-07-06T10:27:43;2.20;;;1.13;;
27925;SDS011;15267;47.838;12.128;2022-07-06T10:30:10;2.00;;;1.15;;
27925;SDS011;15267;47.838;12.128;2022-07-06T10:32:36;1.38;;;1.10;;
27925;SDS011;15267;47.838;12.128;2022-07-06T10:35:05;1.90;;;1.20;;
27925;SDS011;15267;47.838;12.128;2022-07-06T10:37:31;3.17;;;1.20;;
27925;SDS011;15267;47.838;12.128;2022-07-06T10:39:59;3.85;;;1.17;;
27925;SDS011;15267;47.838;12.128;2022-07-06T10:45:11;2.65;;;1.08;;
27925;SDS011;15267;47.838;12.128;2022-07-06T10:47:37;4.15;;;1.50;;
27925;SDS011;15267;47.838;12.128;2022-07-06T10:50:03;5.65;;;1.33;;
27925;SDS011;15267;47.838;12.128;2022-07-06T10:55:27;7.00;;;1.02;;
27925;SDS011;15267;47.838;12.128;2022-07-06T10:57:54;2.58;;;1.10;;
27925;SDS011;15267;47.838;12.128;2022-07-06T11:00:20;6.75;;;1.20;;
27925;SDS011;15267;47.838;12.128;2022-07-06T11:02:46;2.45;;;1.10;;
27925;SDS011;15267;47.838;12.128;2022-07-06T11:05:39;4.35;;;1.10;;
27925;SDS011;15267;47.838;12.128;2022-07-06T11:08:01;2.40;;;1.00;;
27925;SDS011;15267;47.838;12.128;2022-07-06T11:10:27;4.40;;;1.10;;
27925;SDS011;15267;47.838;12.128;2022-07-06T11:12:59;5.28;;;1.20;;
27925;SDS011;15267;47.838;12.128;2022-07-06T11:18:11;3.22;;;1.13;;
27925;SDS011;15267;47.838;12.128;2022-07-06T11:20:37;4.00;;;1.08;;
27925;SDS011;15267;47.838;12.128;2022-07-06T11:23:03;2.20;;;1.05;;
27925;SDS011;15267;47.838;12.128;2022-07-06T11:25:29;3.67;;;1.13;;
27925;SDS011;15267;47.838;12.128;2022-07-06T11:27:55;3.15;;;1.10;;
27925;SDS011;15267;47.838;12.128;2022-07-06T11:30:21;7.45;;;1.63;;
27925;SDS011;15267;47.838;12.128;2022-07-06T11:32:47;5.07;;;1.13;;
27925;SDS011;15267;47.838;12.128;2022-07-06T11:35:20;2.88;;;1.13;;
27925;SDS011;15267;47.838;12.128;2022-07-06T11:40:13;4.45;;;1.20;;
27925;SDS011;15267;47.838;12.128;2022-07-06T11:42:39;4.18;;;1.25;;
27925;SDS011;15267;47.838;12.128;2022-07-06T11:45:05;6.95;;;1.50;;
27925;SDS011;15267;47.838;12.128;2022-07-06T11:47:31;3.25;;;1.10;;
27925;SDS011;15267;47.838;12.128;2022-07-06T11:49:57;3.05;;;1.00;;
27925;SDS011;15267;47.838;12.128;2022-07-06T11:52:23;2.72;;;1.20;;
27925;SDS011;15267;47.838;12.128;2022-07-06T11:54:49;2.83;;;1.40;;
27925;SDS011;15267;47.838;12.128;2022-07-06T11:57:15;6.43;;;1.33;;
27925;SDS011;15267;47.838;12.128;2022-07-06T11:59:42;2.83;;;1.23;;
27925;SDS011;15267;47.838;12.128;2022-07-06T12:02:12;4.32;;;1.30;;
27925;SDS011;15267;47.838;12.128;2022-07-06T12:04:42;3.70;;;1.25;;
27925;SDS011;15267;47.838;12.128;2022-07-06T12:07:09;6.20;;;1.48;;
27925;SDS011;15267;47.838;12.128;2022-07-06T12:09:39;4.22;;;1.58;;
27925;SDS011;15267;47.838;12.128;2022-07-06T12:12:05;4.90;;;1.38;;
27925;SDS011;15267;47.838;12.128;2022-07-06T12:14:33;2.72;;;1.17;;
27925;SDS011;15267;47.838;12.128;2022-07-06T12:17:03;3.88;;;1.35;;
27925;SDS011;15267;47.838;12.128;2022-07-06T12:19:30;4.07;;;1.30;;
27925;SDS011;15267;47.838;12.128;2022-07-06T12:21:56;2.55;;;1.23;;
27925;SDS011;15267;47.838;12.128;2022-07-06T12:24:23;4.00;;;1.17;;
27925;SDS011;15267;47.838;12.128;2022-07-06T12:26:49;3.72;;;1.10;;
27925;SDS011;15267;47.838;12.128;2022-07-06T12:29:16;0.93;;;0.88;;
27925;SDS011;15267;47.838;12.128;2022-07-06T12:31:52;1.48;;;0.80;;
27925;SDS011;15267;47.838;12.128;2022-07-06T12:34:22;2.97;;;1.00;;
27925;SDS011;15267;47.838;12.128;2022-07-06T12:36:49;3.63;;;1.10;;
27925;SDS011;15267;47.838;12.128;2022-07-06T12:39:16;4.18;;;1.05;;
27925;SDS011;15267;47.838;12.128;2022-07-06T12:41:44;1.80;;;1.10;;
27925;SDS011;15267;47.838;12.128;2022-07-06T12:44:10;2.00;;;1.10;;
27925;SDS011;15267;47.838;12.128;2022-07-06T12:46:37;2.28;;;1.00;;
27925;SDS011;15267;47.838;12.128;2022-07-06T12:49:10;3.20;;;1.15;;
27925;SDS011;15267;47.838;12.128;2022-07-06T12:51:53;1.85;;;1.00;;
27925;SDS011;15267;47.838;12.128;2022-07-06T12:54:20;2.28;;;1.23;;
27925;SDS011;15267;47.838;12.128;2022-07-06T12:56:56;2.50;;;1.27;;
27925;SDS011;15267;47.838;12.128;2022-07-06T12:59:22;1.30;;;1.10;;
27925;SDS011;15267;47.838;12.128;2022-07-06T13:01:48;2.97;;;1.20;;
27925;SDS011;15267;47.838;12.128;2022-07-06T13:04:21;3.35;;;1.25;;
27925;SDS011;15267;47.838;12.128;2022-07-06T13:06:47;3.88;;;1.00;;
27925;SDS011;15267;47.838;12.128;2022-07-06T13:09:13;3.70;;;1.10;;
27925;SDS011;15267;47.838;12.128;2022-07-06T13:11:41;2.13;;;1.00;;
27925;SDS011;15267;47.838;12.128;2022-07-06T13:14:07;1.90;;;1.10;;
27925;SDS011;15267;47.838;12.128;2022-07-06T13:16:34;5.10;;;1.27;;
27925;SDS011;15267;47.838;12.128;2022-07-06T13:19:01;2.22;;;0.98;;
27925;SDS011;15267;47.838;12.128;2022-07-06T13:21:27;2.28;;;1.10;;
27925;SDS011;15267;47.838;12.128;2022-07-06T13:23:53;2.05;;;1.00;;
27925;SDS011;15267;47.838;12.128;2022-07-06T13:26:19;1.52;;;1.10;;
27925;SDS011;15267;47.838;12.128;2022-07-06T13:28:45;1.88;;;1.17;;
27925;SDS011;15267;47.838;12.128;2022-07-06T13:31:11;2.25;;;0.90;;
27925;SDS011;15267;47.838;12.128;2022-07-06T13:33:37;4.07;;;1.00;;
27925;SDS011;15267;47.838;12.128;2022-07-06T13:36:03;4.68;;;1.15;;
27925;SDS011;15267;47.838;12.128;2022-07-06T13:38:29;5.00;;;1.33;;
27925;SDS011;15267;47.838;12.128;2022-07-06T13:40:55;1.88;;;1.00;;
27925;SDS011;15267;47.838;12.128;2022-07-06T13:43:21;7.80;;;1.33;;
27925;SDS011;15267;47.838;12.128;2022-07-06T13:45:47;4.93;;;1.20;;
27925;SDS011;15267;47.838;12.128;2022-07-06T13:48:13;3.25;;;1.23;;
27925;SDS011;15267;47.838;12.128;2022-07-06T13:50:39;3.30;;;1.10;;
27925;SDS011;15267;47.838;12.128;2022-07-06T13:53:05;2.00;;;1.00;;
27925;SDS011;15267;47.838;12.128;2022-07-06T13:55:32;2.35;;;1.10;;
27925;SDS011;15267;47.838;12.128;2022-07-06T13:57:58;1.85;;;1.02;;
27925;SDS011;15267;47.838;12.128;2022-07-06T14:00:24;1.98;;;1.27;;
27925;SDS011;15267;47.838;12.128;2022-07-06T14:02:51;5.10;;;1.20;;
27925;SDS011;15267;47.838;12.128;2022-07-06T14:05:17;2.40;;;1.20;;
27925;SDS011;15267;47.838;12.128;2022-07-06T14:07:43;4.93;;;1.10;;
27925;SDS011;15267;47.838;12.128;2022-07-06T14:10:09;4.18;;;1.20;;
27925;SDS011;15267;47.838;12.128;2022-07-06T14:12:35;4.03;;;1.10;;
27925;SDS011;15267;47.838;12.128;2022-07-06T14:15:00;1.92;;;1.17;;
27925;SDS011;15267;47.838;12.128;2022-07-06T14:17:26;5.68;;;1.45;;
27925;SDS011;15267;47.838;12.128;2022-07-06T14:19:52;3.88;;;1.15;;
27925;SDS011;15267;47.838;12.128;2022-07-06T14:22:18;2.45;;;0.95;;
27925;SDS011;15267;47.838;12.128;2022-07-06T14:24:44;1.48;;;1.17;;
27925;SDS011;15267;47.838;12.128;2022-07-06T14:27:10;3.28;;;1.13;;
27925;SDS011;15267;47.838;12.128;2022-07-06T14:29:36;1.60;;;1.10;;
27925;SDS011;15267;47.838;12.128;2022-07-06T14:32:02;1.20;;;0.77;;
27925;SDS011;15267;47.838;12.128;2022-07-06T14:34:28;5.13;;;1.10;;
27925;SDS011;15267;47.838;12.128;2022-07-06T14:36:54;3.85;;;1.10;;
27925;SDS011;15267;47.838;12.128;2022-07-06T14:39:20;2.08;;;1.05;;
27925;SDS011;15267;47.838;12.128;2022-07-06T14:41:46;2.50;;;1.17;;